Wesley Chapel, FL (33544)

6:31 AM EDT on September 16, 2014 (GMT -0400)
Williams Acres II | Change Station
CLOSE
Current Station
Personal Weather Station
Location: Wesley Chapel, FL
Elevation: 118 ft
Nearby Weather Stations

Elev 118 ft 28.23 °N, 82.31 °W | Updated 0 second ago

Clear
Clear
73.4 °F
Feels Like 73.4 °F
N
0.0
Wind Variable Wind from SW
Gusts 0.0 mph

Today
High -- | Low -- °F
--% Chance of Precip.
Yesterday
High -- | Low -- °F
Precip. -- in
7:15 AM 7:33 PM
Waning Gibbous, 47% visible
Pressure 30.10 in
Visibility 10.0 miles
Clouds Clear
Dew Point 73 °F
Humidity 99%
Rainfall 0.00 in
Snow Depth Not available.
UV 0 out of 12
Pollen 6.20 out of 12
Air Quality Not available.
Flu Activity Not available.
METAR KZPH 161015Z AUTO 00000KT 10SM CLR 18/18 A3010 RMK AO2

More Conditions Fewer Conditions

Pressure 30.10 in
Visibility 10.0 miles
Clouds Clear
Dew Point 73 °F
Humidity 99%
Rainfall 0.00 in
Snow Depth Not available.
UV 0 out of 12
Pollen 6.20 out of 12
Air Quality Not available.
Flu Activity Not available.
METAR KZPH 161015Z AUTO 00000KT 10SM CLR 18/18 A3010 RMK AO2

More Conditions Fewer Conditions

10-Day Weather Forecast

Almanac

Astronomy

Sep. 16, 2014 Rise Set
Actual Time 7:15 AM EDT 7:33 PM EDT
Civil Twilight 6:51 AM EDT 7:56 PM EDT
Nautical Twilight 6:23 AM EDT 8:24 PM EDT
Astronomical Twilight 5:56 AM EDT 8:51 PM EDT
Moon 12:44 AM EDT 2:34 PM EDT
Length of Visible Light 13h 05m
Length of Day
12h 18m
Tomorrow will be 1m 40s shorter.
Waning Gibbous, 47% of the Moon is Illuminated
Today
Waning Gibbous
Sep 24
New
Oct 1
First Quarter
Oct 8
Full
Oct 15
Last Quarter

Today's Extremes

State Highs State Lows

Community

WunderPhotos

Upload Photos

1,753,720 photos uploaded!

WunderBlogs® & News

Nearby

Snow Depth

Station Depth Elevation
No new snow has been reported.

Earthquake Activity

City Distance Mag. Time & Date
No recent earthquake activity has been reported nearby.
Minimum magnitude displayed is 2.5.

Coastal Water Temperatures

Place Temperature
No Stations Reporting

Nearby Weather Stations